sensor_id;sensor_type;location;lat;lon;timestamp;temperature;humidity
37518;DHT22;23366;52.498;13.446;2023-01-13T00:02:09;8.70;99.90
37518;DHT22;23366;52.498;13.446;2023-01-13T00:04:34;8.70;99.90
37518;DHT22;23366;52.498;13.446;2023-01-13T00:07:00;8.70;99.90
37518;DHT22;23366;52.498;13.446;2023-01-13T00:09:25;8.70;99.90
37518;DHT22;23366;52.498;13.446;2023-01-13T00:11:51;8.70;99.90
37518;DHT22;23366;52.498;13.446;2023-01-13T00:14:16;8.70;99.90
37518;DHT22;23366;52.498;13.446;2023-01-13T00:16:42;8.70;99.90
37518;DHT22;23366;52.498;13.446;2023-01-13T00:19:08;8.70;99.90
37518;DHT22;23366;52.498;13.446;2023-01-13T00:21:33;8.70;99.90
37518;DHT22;23366;52.498;13.446;2023-01-13T00:24:00;8.70;99.90
37518;DHT22;23366;52.498;13.446;2023-01-13T00:26:27;8.70;99.90
37518;DHT22;23366;52.498;13.446;2023-01-13T00:28:58;8.70;99.90
37518;DHT22;23366;52.498;13.446;2023-01-13T00:31:24;8.70;99.90
37518;DHT22;23366;52.498;13.446;2023-01-13T00:33:50;8.70;99.90
37518;DHT22;23366;52.498;13.446;2023-01-13T00:36:18;8.70;99.90
37518;DHT22;23366;52.498;13.446;2023-01-13T00:38:44;8.70;99.90
37518;DHT22;23366;52.498;13.446;2023-01-13T00:41:12;8.70;99.90
37518;DHT22;23366;52.498;13.446;2023-01-13T00:43:38;8.70;99.90
37518;DHT22;23366;52.498;13.446;2023-01-13T00:46:06;8.70;99.90
37518;DHT22;23366;52.498;13.446;2023-01-13T00:48:32;8.80;99.90
37518;DHT22;23366;52.498;13.446;2023-01-13T00:50:59;8.70;99.90
37518;DHT22;23366;52.498;13.446;2023-01-13T00:53:26;8.70;99.90
37518;DHT22;23366;52.498;13.446;2023-01-13T00:56:04;8.70;99.90
37518;DHT22;23366;52.498;13.446;2023-01-13T00:58:31;8.70;99.90
37518;DHT22;23366;52.498;13.446;2023-01-13T01:01:06;8.70;99.90
37518;DHT22;23366;52.498;13.446;2023-01-13T01:03:32;8.70;99.90
37518;DHT22;23366;52.498;13.446;2023-01-13T01:06:04;8.70;99.90
37518;DHT22;23366;52.498;13.446;2023-01-13T01:08:30;8.70;99.90
37518;DHT22;23366;52.498;13.446;2023-01-13T01:11:04;8.70;99.90
37518;DHT22;23366;52.498;13.446;2023-01-13T01:13:30;8.70;99.90
37518;DHT22;23366;52.498;13.446;2023-01-13T01:15:56;8.70;99.90
37518;DHT22;23366;52.498;13.446;2023-01-13T01:18:21;8.70;99.90
37518;DHT22;23366;52.498;13.446;2023-01-13T01:20:47;8.70;99.90
37518;DHT22;23366;52.498;13.446;2023-01-13T01:23:12;8.70;99.90
37518;DHT22;23366;52.498;13.446;2023-01-13T01:25:38;8.70;99.90
37518;DHT22;23366;52.498;13.446;2023-01-13T01:28:03;8.70;99.90
37518;DHT22;23366;52.498;13.446;2023-01-13T01:30:29;8.80;99.90
37518;DHT22;23366;52.498;13.446;2023-01-13T01:32:54;8.70;99.90
37518;DHT22;23366;52.498;13.446;2023-01-13T01:35:22;8.70;99.90
37518;DHT22;23366;52.498;13.446;2023-01-13T01:37:47;8.70;99.90
37518;DHT22;23366;52.498;13.446;2023-01-13T01:40:13;8.80;99.90
37518;DHT22;23366;52.498;13.446;2023-01-13T01:42:39;8.70;99.90
37518;DHT22;23366;52.498;13.446;2023-01-13T01:45:24;8.80;99.90
37518;DHT22;23366;52.498;13.446;2023-01-13T01:47:58;8.80;99.90
37518;DHT22;23366;52.498;13.446;2023-01-13T01:50:25;8.70;99.90
37518;DHT22;23366;52.498;13.446;2023-01-13T01:53:01;8.80;99.90
37518;DHT22;23366;52.498;13.446;2023-01-13T01:55:32;8.80;99.90
37518;DHT22;23366;52.498;13.446;2023-01-13T02:00:27;8.80;99.90
37518;DHT22;23366;52.498;13.446;2023-01-13T02:02:55;8.80;99.90
37518;DHT22;23366;52.498;13.446;2023-01-13T02:05:22;8.80;99.90
37518;DHT22;23366;52.498;13.446;2023-01-13T02:07:49;8.80;99.90
37518;DHT22;23366;52.498;13.446;2023-01-13T02:10:21;8.80;99.90
37518;DHT22;23366;52.498;13.446;2023-01-13T02:12:47;8.80;99.90
37518;DHT22;23366;52.498;13.446;2023-01-13T02:15:16;8.80;99.90
37518;DHT22;23366;52.498;13.446;2023-01-13T02:18:11;8.80;99.90
37518;DHT22;23366;52.498;13.446;2023-01-13T02:30:30;8.80;99.90
37518;DHT22;23366;52.498;13.446;2023-01-13T02:35:28;8.80;99.90
37518;DHT22;23366;52.498;13.446;2023-01-13T02:37:57;8.80;99.90
37518;DHT22;23366;52.498;13.446;2023-01-13T02:40:42;8.70;99.90
37518;DHT22;23366;52.498;13.446;2023-01-13T02:43:14;8.80;99.90
37518;DHT22;23366;52.498;13.446;2023-01-13T02:46:01;8.80;99.90
37518;DHT22;23366;52.498;13.446;2023-01-13T02:48:30;8.80;99.90
37518;DHT22;23366;52.498;13.446;2023-01-13T02:51:18;8.70;99.90
37518;DHT22;23366;52.498;13.446;2023-01-13T02:53:53;8.80;99.90
37518;DHT22;23366;52.498;13.446;2023-01-13T02:56:23;8.80;99.90
37518;DHT22;23366;52.498;13.446;2023-01-13T02:58:49;8.80;99.90
37518;DHT22;23366;52.498;13.446;2023-01-13T03:01:15;8.80;99.90
37518;DHT22;23366;52.498;13.446;2023-01-13T03:03:41;8.80;99.90
37518;DHT22;23366;52.498;13.446;2023-01-13T03:06:31;8.80;99.90
37518;DHT22;23366;52.498;13.446;2023-01-13T03:09:07;8.80;99.90
37518;DHT22;23366;52.498;13.446;2023-01-13T03:12:02;8.70;99.90
37518;DHT22;23366;52.498;13.446;2023-01-13T03:14:43;8.70;99.90
37518;DHT22;23366;52.498;13.446;2023-01-13T03:17:25;8.70;99.90
37518;DHT22;23366;52.498;13.446;2023-01-13T03:20:02;8.70;99.90
37518;DHT22;23366;52.498;13.446;2023-01-13T03:22:36;8.70;99.90
37518;DHT22;23366;52.498;13.446;2023-01-13T03:27:48;8.70;99.90
37518;DHT22;23366;52.498;13.446;2023-01-13T03:30:22;8.70;99.90
37518;DHT22;23366;52.498;13.446;2023-01-13T03:32:53;8.70;99.90
37518;DHT22;23366;52.498;13.446;2023-01-13T03:35:23;8.70;99.90
37518;DHT22;23366;52.498;13.446;2023-01-13T03:37:55;8.70;99.90
37518;DHT22;23366;52.498;13.446;2023-01-13T03:40:28;8.70;99.90
37518;DHT22;23366;52.498;13.446;2023-01-13T03:43:00;8.70;99.90
37518;DHT22;23366;52.498;13.446;2023-01-13T03:45:50;8.70;99.90
37518;DHT22;23366;52.498;13.446;2023-01-13T03:48:20;8.70;99.90
37518;DHT22;23366;52.498;13.446;2023-01-13T03:50:49;8.70;99.90
37518;DHT22;23366;52.498;13.446;2023-01-13T03:53:29;8.70;99.90
37518;DHT22;23366;52.498;13.446;2023-01-13T03:56:07;8.70;99.90
37518;DHT22;23366;52.498;13.446;2023-01-13T03:58:40;8.70;99.90
37518;DHT22;23366;52.498;13.446;2023-01-13T04:01:27;8.70;99.90
37518;DHT22;23366;52.498;13.446;2023-01-13T04:03:59;8.80;99.90
37518;DHT22;23366;52.498;13.446;2023-01-13T04:09:29;8.80;99.90
37518;DHT22;23366;52.498;13.446;2023-01-13T04:12:11;8.90;99.90
37518;DHT22;23366;52.498;13.446;2023-01-13T04:14:38;8.90;99.90
37518;DHT22;23366;52.498;13.446;2023-01-13T04:17:04;9.00;99.90
37518;DHT22;23366;52.498;13.446;2023-01-13T04:19:30;9.00;99.90
37518;DHT22;23366;52.498;13.446;2023-01-13T04:21:57;9.00;99.90
37518;DHT22;23366;52.498;13.446;2023-01-13T04:24:23;9.00;99.90
37518;DHT22;23366;52.498;13.446;2023-01-13T04:26:49;9.00;99.90
37518;DHT22;23366;52.498;13.446;2023-01-13T04:29:15;9.00;99.90
37518;DHT22;23366;52.498;13.446;2023-01-13T04:31:41;9.00;99.90
37518;DHT22;23366;52.498;13.446;2023-01-13T04:34:08;9.10;99.90
37518;DHT22;23366;52.498;13.446;2023-01-13T04:36:34;9.00;99.90
37518;DHT22;23366;52.498;13.446;2023-01-13T04:39:00;9.10;99.90
37518;DHT22;23366;52.498;13.446;2023-01-13T04:41:26;9.00;99.90
37518;DHT22;23366;52.498;13.446;2023-01-13T04:43:51;9.00;99.90
37518;DHT22;23366;52.498;13.446;2023-01-13T04:46:16;9.00;99.90
37518;DHT22;23366;52.498;13.446;2023-01-13T04:48:42;9.00;99.90
37518;DHT22;23366;52.498;13.446;2023-01-13T04:51:08;9.00;99.90
37518;DHT22;23366;52.498;13.446;2023-01-13T04:53:33;9.00;99.90
37518;DHT22;23366;52.498;13.446;2023-01-13T04:55:58;9.00;99.90
37518;DHT22;23366;52.498;13.446;2023-01-13T04:58:24;8.90;99.90
37518;DHT22;23366;52.498;13.446;2023-01-13T05:00:50;8.90;99.90
37518;DHT22;23366;52.498;13.446;2023-01-13T05:03:16;8.90;99.90
37518;DHT22;23366;52.498;13.446;2023-01-13T05:05:43;8.90;99.90
37518;DHT22;23366;52.498;13.446;2023-01-13T05:08:08;8.90;99.90
37518;DHT22;23366;52.498;13.446;2023-01-13T05:10:34;8.90;99.90
37518;DHT22;23366;52.498;13.446;2023-01-13T05:12:59;9.00;99.90
37518;DHT22;23366;52.498;13.446;2023-01-13T05:15:43;9.00;99.90
37518;DHT22;23366;52.498;13.446;2023-01-13T05:18:47;9.00;99.90
37518;DHT22;23366;52.498;13.446;2023-01-13T05:21:13;9.10;99.90
37518;DHT22;23366;52.498;13.446;2023-01-13T05:23:58;9.10;99.90
37518;DHT22;23366;52.498;13.446;2023-01-13T05:26:42;9.20;99.90
37518;DHT22;23366;52.498;13.446;2023-01-13T05:29:08;9.20;99.90
37518;DHT22;23366;52.498;13.446;2023-01-13T05:31:33;9.20;99.90
37518;DHT22;23366;52.498;13.446;2023-01-13T05:33:59;9.10;99.90
37518;DHT22;23366;52.498;13.446;2023-01-13T05:36:24;9.10;99.90
37518;DHT22;23366;52.498;13.446;2023-01-13T05:38:50;9.00;99.90
37518;DHT22;23366;52.498;13.446;2023-01-13T05:41:16;9.10;99.90
37518;DHT22;23366;52.498;13.446;2023-01-13T05:44:00;9.10;99.90
37518;DHT22;23366;52.498;13.446;2023-01-13T05:46:26;9.00;99.90
37518;DHT22;23366;52.498;13.446;2023-01-13T05:48:51;9.10;99.90
37518;DHT22;23366;52.498;13.446;2023-01-13T05:51:17;9.10;99.90
37518;DHT22;23366;52.498;13.446;2023-01-13T05:53:44;9.10;99.90
37518;DHT22;23366;52.498;13.446;2023-01-13T05:56:11;9.00;99.90
37518;DHT22;23366;52.498;13.446;2023-01-13T05:58:36;9.00;99.90
37518;DHT22;23366;52.498;13.446;2023-01-13T06:01:07;9.00;99.90
37518;DHT22;23366;52.498;13.446;2023-01-13T06:03:33;9.10;99.90
37518;DHT22;23366;52.498;13.446;2023-01-13T06:05:58;9.10;99.90
37518;DHT22;23366;52.498;13.446;2023-01-13T06:08:27;9.10;99.90
37518;DHT22;23366;52.498;13.446;2023-01-13T06:10:53;9.20;99.90
37518;DHT22;23366;52.498;13.446;2023-01-13T06:13:18;9.20;99.90
37518;DHT22;23366;52.498;13.446;2023-01-13T06:15:44;9.20;99.90
37518;DHT22;23366;52.498;13.446;2023-01-13T06:18:09;9.20;99.90
37518;DHT22;23366;52.498;13.446;2023-01-13T06:20:35;9.20;99.90
37518;DHT22;23366;52.498;13.446;2023-01-13T06:23:01;9.20;99.90
37518;DHT22;23366;52.498;13.446;2023-01-13T06:27:54;9.20;99.90
37518;DHT22;23366;52.498;13.446;2023-01-13T06:30:20;9.20;99.90
37518;DHT22;23366;52.498;13.446;2023-01-13T06:32:52;9.20;99.90
37518;DHT22;23366;52.498;13.446;2023-01-13T06:35:26;9.20;99.90
37518;DHT22;23366;52.498;13.446;2023-01-13T06:37:54;9.20;99.90
37518;DHT22;23366;52.498;13.446;2023-01-13T06:40:22;9.20;99.90
37518;DHT22;23366;52.498;13.446;2023-01-13T06:42:48;9.20;99.90
37518;DHT22;23366;52.498;13.446;2023-01-13T06:45:35;9.20;99.90
37518;DHT22;23366;52.498;13.446;2023-01-13T06:48:00;9.20;99.90
37518;DHT22;23366;52.498;13.446;2023-01-13T06:50:26;9.30;99.90
37518;DHT22;23366;52.498;13.446;2023-01-13T06:52:53;9.30;99.90
37518;DHT22;23366;52.498;13.446;2023-01-13T06:55:18;9.30;99.90
37518;DHT22;23366;52.498;13.446;2023-01-13T06:57:52;9.30;99.90
37518;DHT22;23366;52.498;13.446;2023-01-13T07:00:18;9.30;99.90
37518;DHT22;23366;52.498;13.446;2023-01-13T07:02:44;9.30;99.90
37518;DHT22;23366;52.498;13.446;2023-01-13T07:05:12;9.20;99.90
37518;DHT22;23366;52.498;13.446;2023-01-13T07:07:38;9.20;99.90
37518;DHT22;23366;52.498;13.446;2023-01-13T07:10:04;9.20;99.90
37518;DHT22;23366;52.498;13.446;2023-01-13T07:12:32;9.20;99.90
37518;DHT22;23366;52.498;13.446;2023-01-13T07:15:17;9.20;99.90
37518;DHT22;23366;52.498;13.446;2023-01-13T07:17:43;9.20;99.90
37518;DHT22;23366;52.498;13.446;2023-01-13T07:20:09;9.20;99.90
37518;DHT22;23366;52.498;13.446;2023-01-13T07:22:35;9.20;99.90
37518;DHT22;23366;52.498;13.446;2023-01-13T07:25:00;9.20;99.90
37518;DHT22;23366;52.498;13.446;2023-01-13T07:27:26;9.20;99.90
37518;DHT22;23366;52.498;13.446;2023-01-13T07:29:51;9.20;99.90
37518;DHT22;23366;52.498;13.446;2023-01-13T07:32:17;9.20;99.90
37518;DHT22;23366;52.498;13.446;2023-01-13T07:34:42;9.30;99.90
37518;DHT22;23366;52.498;13.446;2023-01-13T07:37:07;9.20;99.90
37518;DHT22;23366;52.498;13.446;2023-01-13T07:39:33;9.20;99.90
37518;DHT22;23366;52.498;13.446;2023-01-13T07:41:59;9.30;99.90
37518;DHT22;23366;52.498;13.446;2023-01-13T07:44:43;9.30;99.90
37518;DHT22;23366;52.498;13.446;2023-01-13T07:47:08;9.30;99.90
37518;DHT22;23366;52.498;13.446;2023-01-13T07:49:35;9.30;99.90
37518;DHT22;23366;52.498;13.446;2023-01-13T07:52:01;9.30;99.90
37518;DHT22;23366;52.498;13.446;2023-01-13T07:54:27;9.20;99.90
37518;DHT22;23366;52.498;13.446;2023-01-13T07:56:55;9.30;99.90
37518;DHT22;23366;52.498;13.446;2023-01-13T07:59:21;9.30;99.90
37518;DHT22;23366;52.498;13.446;2023-01-13T08:01:47;9.30;99.90
37518;DHT22;23366;52.498;13.446;2023-01-13T08:04:12;9.30;99.90
37518;DHT22;23366;52.498;13.446;2023-01-13T08:06:39;9.30;99.90
37518;DHT22;23366;52.498;13.446;2023-01-13T08:09:05;9.30;99.90
37518;DHT22;23366;52.498;13.446;2023-01-13T08:11:31;9.30;99.90
37518;DHT22;23366;52.498;13.446;2023-01-13T08:13:59;9.30;99.90
37518;DHT22;23366;52.498;13.446;2023-01-13T08:16:25;9.30;99.90
37518;DHT22;23366;52.498;13.446;2023-01-13T08:18:50;9.30;99.90
37518;DHT22;23366;52.498;13.446;2023-01-13T08:21:16;9.30;99.90
37518;DHT22;23366;52.498;13.446;2023-01-13T08:23:43;9.30;99.90
37518;DHT22;23366;52.498;13.446;2023-01-13T08:26:14;9.40;99.90
37518;DHT22;23366;52.498;13.446;2023-01-13T08:28:41;9.40;99.90
37518;DHT22;23366;52.498;13.446;2023-01-13T08:31:12;9.40;99.90
37518;DHT22;23366;52.498;13.446;2023-01-13T08:33:40;9.40;99.90
37518;DHT22;23366;52.498;13.446;2023-01-13T08:36:08;9.40;99.90
37518;DHT22;23366;52.498;13.446;2023-01-13T08:38:34;9.40;99.90
37518;DHT22;23366;52.498;13.446;2023-01-13T08:41:07;9.40;99.90
37518;DHT22;23366;52.498;13.446;2023-01-13T08:43:32;9.40;99.90
37518;DHT22;23366;52.498;13.446;2023-01-13T08:46:00;9.40;99.90
37518;DHT22;23366;52.498;13.446;2023-01-13T08:48:27;9.40;99.90
37518;DHT22;23366;52.498;13.446;2023-01-13T08:50:53;9.40;99.90
37518;DHT22;23366;52.498;13.446;2023-01-13T08:53:19;9.40;99.90
37518;DHT22;23366;52.498;13.446;2023-01-13T08:55:45;9.40;99.90
37518;DHT22;23366;52.498;13.446;2023-01-13T08:58:11;9.50;99.90
37518;DHT22;23366;52.498;13.446;2023-01-13T09:00:36;9.50;99.90
37518;DHT22;23366;52.498;13.446;2023-01-13T09:03:02;9.40;99.90
37518;DHT22;23366;52.498;13.446;2023-01-13T09:05:28;9.50;99.90
37518;DHT22;23366;52.498;13.446;2023-01-13T09:07:53;9.50;99.90
37518;DHT22;23366;52.498;13.446;2023-01-13T09:10:19;9.40;99.90
37518;DHT22;23366;52.498;13.446;2023-01-13T09:12:44;9.40;99.90
37518;DHT22;23366;52.498;13.446;2023-01-13T09:15:29;9.40;99.90
37518;DHT22;23366;52.498;13.446;2023-01-13T09:17:54;9.40;99.90
37518;DHT22;23366;52.498;13.446;2023-01-13T09:20:20;9.30;99.90
37518;DHT22;23366;52.498;13.446;2023-01-13T09:22:46;9.30;99.90
37518;DHT22;23366;52.498;13.446;2023-01-13T09:25:11;9.30;99.90
37518;DHT22;23366;52.498;13.446;2023-01-13T09:27:37;9.30;99.90
37518;DHT22;23366;52.498;13.446;2023-01-13T09:30:03;9.30;99.90
37518;DHT22;23366;52.498;13.446;2023-01-13T09:32:29;9.30;99.90
37518;DHT22;23366;52.498;13.446;2023-01-13T09:34:55;9.30;99.90
37518;DHT22;23366;52.498;13.446;2023-01-13T09:37:27;9.30;99.90
37518;DHT22;23366;52.498;13.446;2023-01-13T09:39:53;9.40;99.90
37518;DHT22;23366;52.498;13.446;2023-01-13T09:42:34;9.40;99.90
37518;DHT22;23366;52.498;13.446;2023-01-13T09:48:26;9.60;99.90
37518;DHT22;23366;52.498;13.446;2023-01-13T09:53:31;9.70;99.90
37518;DHT22;23366;52.498;13.446;2023-01-13T09:55:57;9.70;99.90
37518;DHT22;23366;52.498;13.446;2023-01-13T09:58:23;9.70;99.90
37518;DHT22;23366;52.498;13.446;2023-01-13T10:01:26;9.70;99.90
37518;DHT22;23366;52.498;13.446;2023-01-13T10:03:53;9.60;99.90
37518;DHT22;23366;52.498;13.446;2023-01-13T10:06:37;9.60;99.90
37518;DHT22;23366;52.498;13.446;2023-01-13T10:09:04;9.50;99.90
37518;DHT22;23366;52.498;13.446;2023-01-13T10:11:39;9.50;99.90
37518;DHT22;23366;52.498;13.446;2023-01-13T10:14:53;9.40;99.90
37518;DHT22;23366;52.498;13.446;2023-01-13T10:20:21;9.30;99.90
37518;DHT22;23366;52.498;13.446;2023-01-13T10:23:26;9.20;99.90
37518;DHT22;23366;52.498;13.446;2023-01-13T10:28:27;9.30;99.90
37518;DHT22;23366;52.498;13.446;2023-01-13T10:30:52;9.40;99.90
37518;DHT22;23366;52.498;13.446;2023-01-13T10:33:27;9.40;99.90
37518;DHT22;23366;52.498;13.446;2023-01-13T10:36:13;9.40;99.90
37518;DHT22;23366;52.498;13.446;2023-01-13T10:38:49;9.40;99.90
37518;DHT22;23366;52.498;13.446;2023-01-13T10:44:04;9.40;99.90
37518;DHT22;23366;52.498;13.446;2023-01-13T10:46:32;9.40;99.90
37518;DHT22;23366;52.498;13.446;2023-01-13T10:49:03;9.40;99.90
37518;DHT22;23366;52.498;13.446;2023-01-13T10:51:44;9.40;99.90
37518;DHT22;23366;52.498;13.446;2023-01-13T10:56:43;9.50;99.90
37518;DHT22;23366;52.498;13.446;2023-01-13T10:59:16;9.50;99.90
37518;DHT22;23366;52.498;13.446;2023-01-13T11:05:14;9.50;99.90
37518;DHT22;23366;52.498;13.446;2023-01-13T11:15:20;9.70;99.90
37518;DHT22;23366;52.498;13.446;2023-01-13T11:17:59;9.60;99.90
37518;DHT22;23366;52.498;13.446;2023-01-13T11:20:40;9.70;99.90
37518;DHT22;23366;52.498;13.446;2023-01-13T11:23:18;9.70;99.90
37518;DHT22;23366;52.498;13.446;2023-01-13T11:25:50;9.90;99.90
37518;DHT22;23366;52.498;13.446;2023-01-13T11:28:33;9.90;99.90
37518;DHT22;23366;52.498;13.446;2023-01-13T11:31:22;9.90;99.90
37518;DHT22;23366;52.498;13.446;2023-01-13T11:34:11;9.90;99.90
37518;DHT22;23366;52.498;13.446;2023-01-13T11:36:59;9.90;99.90
37518;DHT22;23366;52.498;13.446;2023-01-13T11:42:43;9.90;99.90
37518;DHT22;23366;52.498;13.446;2023-01-13T11:47:43;9.80;99.90
37518;DHT22;23366;52.498;13.446;2023-01-13T11:50:44;9.80;99.90
37518;DHT22;23366;52.498;13.446;2023-01-13T11:56:09;9.80;99.90
37518;DHT22;23366;52.498;13.446;2023-01-13T12:02:01;9.90;99.90
37518;DHT22;23366;52.498;13.446;2023-01-13T12:07:51;10.00;99.90
37518;DHT22;23366;52.498;13.446;2023-01-13T12:13:23;10.00;99.90
37518;DHT22;23366;52.498;13.446;2023-01-13T12:19:09;10.10;99.90
37518;DHT22;23366;52.498;13.446;2023-01-13T12:21:48;10.10;99.90
37518;DHT22;23366;52.498;13.446;2023-01-13T12:24:21;10.20;99.90
37518;DHT22;23366;52.498;13.446;2023-01-13T12:26:54;10.10;99.90
37518;DHT22;23366;52.498;13.446;2023-01-13T12:29:30;10.10;99.90
37518;DHT22;23366;52.498;13.446;2023-01-13T12:31:59;10.00;99.90
37518;DHT22;23366;52.498;13.446;2023-01-13T12:35:08;10.10;99.90
37518;DHT22;23366;52.498;13.446;2023-01-13T12:37:45;10.00;99.90
37518;DHT22;23366;52.498;13.446;2023-01-13T12:40:44;10.00;99.90
37518;DHT22;23366;52.498;13.446;2023-01-13T12:43:21;10.00;99.90
37518;DHT22;23366;52.498;13.446;2023-01-13T12:49:03;10.00;99.90
37518;DHT22;23366;52.498;13.446;2023-01-13T12:51:35;9.90;99.90
37518;DHT22;23366;52.498;13.446;2023-01-13T12:59:45;10.00;99.90
37518;DHT22;23366;52.498;13.446;2023-01-13T13:02:32;10.00;99.90
37518;DHT22;23366;52.498;13.446;2023-01-13T13:07:51;9.90;99.90
37518;DHT22;23366;52.498;13.446;2023-01-13T13:10:26;9.90;99.90
37518;DHT22;23366;52.498;13.446;2023-01-13T13:12:55;9.90;99.90
37518;DHT22;23366;52.498;13.446;2023-01-13T13:15:39;9.90;99.90
37518;DHT22;23366;52.498;13.446;2023-01-13T13:20:58;9.90;99.90
37518;DHT22;23366;52.498;13.446;2023-01-13T13:23:35;9.90;99.90
37518;DHT22;23366;52.498;13.446;2023-01-13T13:34:24;9.80;99.90
37518;DHT22;23366;52.498;13.446;2023-01-13T13:37:01;9.80;99.90
37518;DHT22;23366;52.498;13.446;2023-01-13T13:39:30;9.80;99.90
37518;DHT22;23366;52.498;13.446;2023-01-13T13:42:25;9.80;99.90
37518;DHT22;23366;52.498;13.446;2023-01-13T13:45:14;9.90;99.90
37518;DHT22;23366;52.498;13.446;2023-01-13T13:47:59;9.90;99.90
37518;DHT22;23366;52.498;13.446;2023-01-13T13:50:27;9.90;99.90
37518;DHT22;23366;52.498;13.446;2023-01-13T13:53:01;9.90;99.90
37518;DHT22;23366;52.498;13.446;2023-01-13T13:55:29;9.80;99.90
37518;DHT22;23366;52.498;13.446;2023-01-13T13:57:56;9.80;99.90
37518;DHT22;23366;52.498;13.446;2023-01-13T14:00:34;9.70;99.90
37518;DHT22;23366;52.498;13.446;2023-01-13T14:03:26;9.70;99.90
37518;DHT22;23366;52.498;13.446;2023-01-13T14:05:59;9.60;99.90
37518;DHT22;23366;52.498;13.446;2023-01-13T14:08:48;9.50;99.90
37518;DHT22;23366;52.498;13.446;2023-01-13T14:11:29;9.50;99.90
37518;DHT22;23366;52.498;13.446;2023-01-13T14:14:06;9.40;99.90
37518;DHT22;23366;52.498;13.446;2023-01-13T14:16:33;9.40;99.90
37518;DHT22;23366;52.498;13.446;2023-01-13T14:18:59;9.30;99.90
37518;DHT22;23366;52.498;13.446;2023-01-13T14:21:27;9.30;99.90
37518;DHT22;23366;52.498;13.446;2023-01-13T14:24:12;9.30;99.90
37518;DHT22;23366;52.498;13.446;2023-01-13T14:26:38;9.30;99.90
37518;DHT22;23366;52.498;13.446;2023-01-13T14:29:04;9.40;99.90
37518;DHT22;23366;52.498;13.446;2023-01-13T14:31:31;9.40;99.90
37518;DHT22;23366;52.498;13.446;2023-01-13T14:33:58;9.40;99.90
37518;DHT22;23366;52.498;13.446;2023-01-13T14:36:34;9.40;99.90
37518;DHT22;23366;52.498;13.446;2023-01-13T14:44:00;9.50;99.90
37518;DHT22;23366;52.498;13.446;2023-01-13T14:46:41;9.50;99.90
37518;DHT22;23366;52.498;13.446;2023-01-13T14:49:33;9.50;99.90
37518;DHT22;23366;52.498;13.446;2023-01-13T14:52:26;9.50;99.90
37518;DHT22;23366;52.498;13.446;2023-01-13T14:55:19;9.50;99.90
37518;DHT22;23366;52.498;13.446;2023-01-13T14:57:46;9.50;99.90
37518;DHT22;23366;52.498;13.446;2023-01-13T15:02:46;9.40;99.90
37518;DHT22;23366;52.498;13.446;2023-01-13T15:05:23;9.40;99.90
37518;DHT22;23366;52.498;13.446;2023-01-13T15:10:57;9.40;99.90
37518;DHT22;23366;52.498;13.446;2023-01-13T15:16:02;9.40;99.90
37518;DHT22;23366;52.498;13.446;2023-01-13T15:18:28;9.30;99.90
37518;DHT22;23366;52.498;13.446;2023-01-13T15:20:54;9.30;99.90
37518;DHT22;23366;52.498;13.446;2023-01-13T15:23:20;9.20;99.90
37518;DHT22;23366;52.498;13.446;2023-01-13T15:25:46;9.20;99.90
37518;DHT22;23366;52.498;13.446;2023-01-13T15:28:19;9.10;99.90
37518;DHT22;23366;52.498;13.446;2023-01-13T15:30:45;9.10;99.90
37518;DHT22;23366;52.498;13.446;2023-01-13T15:33:12;9.00;99.90
37518;DHT22;23366;52.498;13.446;2023-01-13T15:35:41;8.90;99.90
37518;DHT22;23366;52.498;13.446;2023-01-13T15:38:13;8.90;99.90
37518;DHT22;23366;52.498;13.446;2023-01-13T15:40:40;8.90;99.90
37518;DHT22;23366;52.498;13.446;2023-01-13T15:43:05;8.80;99.90
37518;DHT22;23366;52.498;13.446;2023-01-13T15:45:50;8.80;99.90
37518;DHT22;23366;52.498;13.446;2023-01-13T15:48:34;8.70;99.90
37518;DHT22;23366;52.498;13.446;2023-01-13T15:51:00;8.70;99.90
37518;DHT22;23366;52.498;13.446;2023-01-13T15:53:26;8.70;99.90
37518;DHT22;23366;52.498;13.446;2023-01-13T15:55:55;8.70;99.90
37518;DHT22;23366;52.498;13.446;2023-01-13T15:58:25;8.70;99.90
37518;DHT22;23366;52.498;13.446;2023-01-13T16:00:50;8.70;99.90
37518;DHT22;23366;52.498;13.446;2023-01-13T16:03:16;8.70;99.90
37518;DHT22;23366;52.498;13.446;2023-01-13T16:05:42;8.70;99.90
37518;DHT22;23366;52.498;13.446;2023-01-13T16:08:19;8.70;99.90
37518;DHT22;23366;52.498;13.446;2023-01-13T16:10:46;8.70;99.90
37518;DHT22;23366;52.498;13.446;2023-01-13T16:13:12;8.70;99.90
37518;DHT22;23366;52.498;13.446;2023-01-13T16:15:47;8.70;99.90
37518;DHT22;23366;52.498;13.446;2023-01-13T16:18:22;8.80;99.90
37518;DHT22;23366;52.498;13.446;2023-01-13T16:20:49;8.80;99.90
37518;DHT22;23366;52.498;13.446;2023-01-13T16:23:22;8.70;99.90
37518;DHT22;23366;52.498;13.446;2023-01-13T16:25:48;8.70;99.90
37518;DHT22;23366;52.498;13.446;2023-01-13T16:28:20;8.70;99.90
37518;DHT22;23366;52.498;13.446;2023-01-13T16:30:45;8.60;99.90
37518;DHT22;23366;52.498;13.446;2023-01-13T16:33:12;8.70;99.90
37518;DHT22;23366;52.498;13.446;2023-01-13T16:35:37;8.60;99.90
37518;DHT22;23366;52.498;13.446;2023-01-13T16:38:03;8.60;99.90
37518;DHT22;23366;52.498;13.446;2023-01-13T16:40:31;8.70;99.90
37518;DHT22;23366;52.498;13.446;2023-01-13T16:42:58;8.60;99.90
37518;DHT22;23366;52.498;13.446;2023-01-13T16:45:25;8.70;99.90
37518;DHT22;23366;52.498;13.446;2023-01-13T16:47:51;8.70;99.90
37518;DHT22;23366;52.498;13.446;2023-01-13T16:52:47;8.70;99.90
37518;DHT22;23366;52.498;13.446;2023-01-13T16:55:13;8.70;99.90
37518;DHT22;23366;52.498;13.446;2023-01-13T16:57:38;8.60;99.90
37518;DHT22;23366;52.498;13.446;2023-01-13T17:00:04;8.60;99.90
37518;DHT22;23366;52.498;13.446;2023-01-13T17:02:31;8.60;99.90
37518;DHT22;23366;52.498;13.446;2023-01-13T17:04:56;8.50;99.90
37518;DHT22;23366;52.498;13.446;2023-01-13T17:07:22;8.50;99.90
37518;DHT22;23366;52.498;13.446;2023-01-13T17:09:47;8.50;99.90
37518;DHT22;23366;52.498;13.446;2023-01-13T17:12:15;8.50;99.90
37518;DHT22;23366;52.498;13.446;2023-01-13T17:14:40;8.40;99.90
37518;DHT22;23366;52.498;13.446;2023-01-13T17:17:13;8.50;99.90
37518;DHT22;23366;52.498;13.446;2023-01-13T17:19:43;8.40;99.90
37518;DHT22;23366;52.498;13.446;2023-01-13T17:22:08;8.50;99.90
37518;DHT22;23366;52.498;13.446;2023-01-13T17:24:34;8.40;99.90
37518;DHT22;23366;52.498;13.446;2023-01-13T17:27:01;8.40;99.90
37518;DHT22;23366;52.498;13.446;2023-01-13T17:29:27;8.40;99.90
37518;DHT22;23366;52.498;13.446;2023-01-13T17:31:53;8.40;99.90
37518;DHT22;23366;52.498;13.446;2023-01-13T17:34:19;8.30;99.90
37518;DHT22;23366;52.498;13.446;2023-01-13T17:36:45;8.30;99.90
37518;DHT22;23366;52.498;13.446;2023-01-13T17:39:16;8.20;99.90
37518;DHT22;23366;52.498;13.446;2023-01-13T17:41:42;8.20;99.90
37518;DHT22;23366;52.498;13.446;2023-01-13T17:44:08;8.30;99.90